createdAt,value
2019-05-18T00:00:38.543Z,21.20
2019-05-18T00:03:07.642Z,21.20
2019-05-18T00:05:36.525Z,21.30
2019-05-18T00:08:05.825Z,21.30
2019-05-18T00:10:34.925Z,21.30
2019-05-18T00:13:04.624Z,21.40
2019-05-18T00:15:40.778Z,21.40
2019-05-18T00:18:10.092Z,21.40
2019-05-18T00:20:39.538Z,21.50
2019-05-18T00:23:08.487Z,21.50
2019-05-18T00:25:37.686Z,21.50
2019-05-18T00:28:06.682Z,21.50
2019-05-18T00:30:35.673Z,21.60
2019-05-18T00:33:05.280Z,21.60
2019-05-18T00:35:34.283Z,21.60
2019-05-18T00:38:03.266Z,21.60
2019-05-18T00:40:35.964Z,21.60
2019-05-18T00:43:05.248Z,21.70
2019-05-18T00:45:34.239Z,21.70
2019-05-18T00:48:03.541Z,21.70
2019-05-18T00:50:32.844Z,21.70
2019-05-18T00:53:01.834Z,21.70
2019-05-18T00:55:30.929Z,21.80
2019-05-18T00:58:00.741Z,21.80
2019-05-18T01:00:29.839Z,21.80
2019-05-18T01:02:59.751Z,21.80
2019-05-18T01:05:34.069Z,21.80
2019-05-18T01:08:03.885Z,21.80
2019-05-18T01:10:33.084Z,21.90
2019-05-18T01:13:02.079Z,21.90
2019-05-18T01:15:31.073Z,21.90
2019-05-18T01:18:02.194Z,21.90
2019-05-18T01:20:30.383Z,21.90
2019-05-18T01:23:00.197Z,21.90
2019-05-18T01:25:29.190Z,22.00
2019-05-18T01:27:58.182Z,22.00
2019-05-18T01:30:27.174Z,22.00
2019-05-18T01:32:56.785Z,22.00
2019-05-18T01:35:25.882Z,22.00
2019-05-18T01:37:55.076Z,22.10
2019-05-18T01:40:24.383Z,22.10
2019-05-18T01:42:54.908Z,22.10
2019-05-18T01:45:24.822Z,22.20
2019-05-18T01:47:54.428Z,22.20
2019-05-18T01:50:23.633Z,22.20
2019-05-18T01:52:52.658Z,22.30
2019-05-18T01:55:21.717Z,22.30
2019-05-18T01:57:50.604Z,22.30
2019-05-18T02:00:19.495Z,22.30
2019-05-18T02:02:49.411Z,22.30
2019-05-18T02:05:18.304Z,22.30
2019-05-18T02:07:47.294Z,22.40
2019-05-18T02:10:16.391Z,22.40
2019-05-18T02:12:45.280Z,22.40
2019-05-18T02:15:14.273Z,22.40
2019-05-18T02:17:43.368Z,22.40
2019-05-18T02:20:12.259Z,22.40
2019-05-18T02:22:41.255Z,22.40
2019-05-18T02:25:10.554Z,22.40
2019-05-18T02:27:39.547Z,22.40
2019-05-18T02:30:08.542Z,22.40
2019-05-18T02:32:37.534Z,22.40
2019-05-18T02:35:06.938Z,22.40
2019-05-18T02:37:36.749Z,22.40
2019-05-18T02:40:07.278Z,22.40
2019-05-18T02:42:36.269Z,22.40
2019-05-18T02:45:08.130Z,22.40
2019-05-18T02:47:39.480Z,22.40
2019-05-18T02:50:08.481Z,22.40
2019-05-18T02:52:37.464Z,22.40
2019-05-18T02:55:07.075Z,22.50
2019-05-18T02:57:36.070Z,22.40
2019-05-18T03:00:08.847Z,22.50
2019-05-18T03:02:38.044Z,22.40
2019-05-18T03:05:07.653Z,22.50
2019-05-18T03:07:36.655Z,22.50
2019-05-18T03:10:08.209Z,22.50
2019-05-18T03:12:37.128Z,22.50
2019-05-18T03:15:09.350Z,22.50
2019-05-18T03:17:38.572Z,22.60
2019-05-18T03:20:08.175Z,22.60
2019-05-18T03:22:37.060Z,22.60
2019-05-18T03:25:06.981Z,22.60
2019-05-18T03:27:36.164Z,22.60
2019-05-18T03:30:07.423Z,22.60
2019-05-18T03:32:36.424Z,22.60
2019-05-18T03:35:05.741Z,22.60
2019-05-18T03:37:34.701Z,22.60
2019-05-18T03:40:04.564Z,22.60
2019-05-18T03:42:33.404Z,22.60
2019-05-18T03:45:02.296Z,22.60
2019-05-18T03:47:32.066Z,22.70
2019-05-18T03:50:01.005Z,22.70
2019-05-18T03:52:29.890Z,22.70
2019-05-18T03:54:58.881Z,22.70
2019-05-18T03:57:27.876Z,22.70
2019-05-18T03:59:56.882Z,22.70
2019-05-18T04:02:26.172Z,22.70
2019-05-18T04:04:55.473Z,22.70
2019-05-18T04:07:24.796Z,22.70
2019-05-18T04:09:56.328Z,22.70
2019-05-18T04:12:25.314Z,22.70
2019-05-18T04:14:54.516Z,22.70
2019-05-18T04:17:24.120Z,22.70
2019-05-18T04:19:53.023Z,22.70
2019-05-18T04:22:22.209Z,22.70
2019-05-18T04:24:51.114Z,22.70
2019-05-18T04:27:20.093Z,22.70
2019-05-18T04:29:49.103Z,22.70
2019-05-18T04:32:18.181Z,22.70
2019-05-18T04:34:47.997Z,22.70
2019-05-18T04:37:16.988Z,22.70
2019-05-18T04:39:45.987Z,22.70
2019-05-18T04:42:14.979Z,22.70
2019-05-18T04:44:43.971Z,22.70
2019-05-18T04:47:12.961Z,22.70
2019-05-18T04:49:41.953Z,22.70
2019-05-18T04:52:11.050Z,22.80
2019-05-18T04:54:39.939Z,22.80
2019-05-18T04:57:08.935Z,22.80
2019-05-18T04:59:37.925Z,22.80
2019-05-18T05:02:07.020Z,22.80
2019-05-18T05:04:36.835Z,22.80
2019-05-18T05:07:05.827Z,22.80
2019-05-18T05:09:34.716Z,22.80
2019-05-18T05:12:03.812Z,22.80
2019-05-18T05:14:32.806Z,22.80
2019-05-18T05:17:01.799Z,22.80
2019-05-18T05:19:30.793Z,22.80
2019-05-18T05:22:00.095Z,22.80
2019-05-18T05:24:29.599Z,22.80
2019-05-18T05:27:00.542Z,22.70
2019-05-18T05:29:30.249Z,22.70
2019-05-18T05:32:00.475Z,22.70
2019-05-18T05:34:29.673Z,22.80
2019-05-18T05:36:58.980Z,22.90
2019-05-18T05:39:28.070Z,22.90
2019-05-18T05:41:56.959Z,23.00
2019-05-18T05:44:26.253Z,23.00
2019-05-18T05:46:55.349Z,23.00
2019-05-18T05:49:24.858Z,23.00
2019-05-18T05:51:54.159Z,23.10
2019-05-18T05:54:23.457Z,23.10
2019-05-18T05:56:52.554Z,23.10
2019-05-18T05:59:21.747Z,23.10
2019-05-18T06:01:50.751Z,23.10
2019-05-18T06:04:20.657Z,23.10
2019-05-18T06:06:49.751Z,23.10
2019-05-18T06:09:18.647Z,23.10
2019-05-18T06:11:48.658Z,23.10
2019-05-18T06:14:17.549Z,23.00
2019-05-18T06:16:46.543Z,23.00
2019-05-18T06:19:15.537Z,23.00
2019-05-18T06:21:44.531Z,23.00
2019-05-18T06:24:13.527Z,23.00
2019-05-18T06:26:42.516Z,23.00
2019-05-18T06:29:11.511Z,23.00
2019-05-18T06:31:40.504Z,23.00
2019-05-18T06:34:09.495Z,23.00
2019-05-18T06:36:38.487Z,23.00
2019-05-18T06:39:08.136Z,22.90
2019-05-18T06:41:37.088Z,23.00
2019-05-18T06:44:06.528Z,23.00
2019-05-18T06:46:35.483Z,23.00
2019-05-18T06:49:05.300Z,23.00
2019-05-18T06:51:34.290Z,23.00
2019-05-18T06:54:03.284Z,23.00
2019-05-18T06:56:32.786Z,23.00
2019-05-18T06:59:01.892Z,23.00
2019-05-18T07:01:30.901Z,23.00
2019-05-18T07:03:59.766Z,23.00
2019-05-18T07:06:28.656Z,23.00
2019-05-18T07:08:57.558Z,23.00
2019-05-18T07:11:26.543Z,23.00
2019-05-18T07:13:55.856Z,23.00
2019-05-18T07:16:25.451Z,23.00
2019-05-18T07:18:54.852Z,23.00
2019-05-18T07:21:24.369Z,23.00
2019-05-18T07:23:53.965Z,23.00
2019-05-18T07:26:22.992Z,23.00
2019-05-18T07:28:52.258Z,23.00
2019-05-18T07:31:21.253Z,23.00
2019-05-18T07:33:50.244Z,23.10
2019-05-18T07:36:19.263Z,23.00
2019-05-18T07:38:48.652Z,23.10
2019-05-18T07:41:17.840Z,23.10
2019-05-18T07:43:46.836Z,23.10
2019-05-18T07:46:17.060Z,23.10
2019-05-18T07:48:46.055Z,23.10
2019-05-18T07:51:15.149Z,23.10
2019-05-18T07:53:44.136Z,23.10
2019-05-18T07:56:13.947Z,23.10
2019-05-18T07:58:42.942Z,23.10
2019-05-18T08:01:12.034Z,23.10
2019-05-18T08:03:40.927Z,23.20
2019-05-18T08:06:09.922Z,23.20
2019-05-18T08:08:38.812Z,23.20
2019-05-18T08:11:07.905Z,23.20
2019-05-18T08:13:36.898Z,23.20
2019-05-18T08:16:05.995Z,23.20
2019-05-18T08:18:34.891Z,23.20
2019-05-18T08:21:04.288Z,23.20
2019-05-18T08:23:33.486Z,23.20
2019-05-18T08:26:02.479Z,23.20
2019-05-18T08:28:31.786Z,23.20
2019-05-18T08:31:00.875Z,23.20
2019-05-18T08:33:29.766Z,23.30
2019-05-18T08:35:58.762Z,23.30
2019-05-18T08:38:27.855Z,23.30
2019-05-18T08:40:56.746Z,23.30
2019-05-18T08:43:26.047Z,23.30
2019-05-18T08:45:56.782Z,23.30
2019-05-18T08:48:25.876Z,23.30
2019-05-18T08:50:55.276Z,23.30
2019-05-18T08:53:24.478Z,23.40
2019-05-18T08:55:54.083Z,23.40
2019-05-18T08:58:23.075Z,23.40
2019-05-18T09:00:51.867Z,23.40
2019-05-18T09:03:20.757Z,23.40
2019-05-18T09:05:49.569Z,23.40
2019-05-18T09:08:18.545Z,23.40
2019-05-18T09:10:47.428Z,23.40
2019-05-18T09:13:16.431Z,23.40
2019-05-18T09:15:46.029Z,23.40
2019-05-18T09:18:15.952Z,23.50
2019-05-18T09:20:44.936Z,23.50
2019-05-18T09:23:14.238Z,23.60
2019-05-18T09:25:43.543Z,23.60
2019-05-18T09:28:13.767Z,23.60
2019-05-18T09:30:42.653Z,23.70
2019-05-18T09:33:12.363Z,23.70
2019-05-18T09:35:41.367Z,23.60
2019-05-18T09:38:10.346Z,23.60
2019-05-18T09:40:39.339Z,23.50
2019-05-18T09:43:08.642Z,23.50
2019-05-18T09:45:38.045Z,23.50
2019-05-18T09:48:07.245Z,23.50
2019-05-18T09:50:36.542Z,23.50
2019-05-18T09:53:05.796Z,23.50
2019-05-18T09:55:35.145Z,23.50
2019-05-18T09:58:04.148Z,23.50
2019-05-18T10:00:38.442Z,23.50
2019-05-18T10:03:03.668Z,23.60
2019-05-18T10:05:32.758Z,23.60
2019-05-18T10:08:01.550Z,23.50
2019-05-18T10:10:33.218Z,23.50
2019-05-18T10:13:01.780Z,23.50
2019-05-18T10:15:30.593Z,23.40
2019-05-18T10:17:59.460Z,23.40
2019-05-18T10:20:28.555Z,23.30
2019-05-18T10:23:11.798Z,23.40
2019-05-18T10:25:27.973Z,23.40
2019-05-18T10:27:57.276Z,23.30
2019-05-18T10:30:26.267Z,23.30
2019-05-18T10:32:56.489Z,23.30
2019-05-18T10:35:26.098Z,23.30
2019-05-18T10:37:55.397Z,23.30
2019-05-18T10:40:24.703Z,23.30
2019-05-18T10:42:54.306Z,23.30
2019-05-18T10:45:23.589Z,23.30
2019-05-18T10:47:52.881Z,23.30
2019-05-18T10:50:21.904Z,23.30
2019-05-18T10:52:50.796Z,23.20
2019-05-18T10:55:19.576Z,23.30
2019-05-18T10:57:48.571Z,23.30
2019-05-18T11:00:19.716Z,23.30
2019-05-18T11:02:48.713Z,23.30
2019-05-18T11:05:17.703Z,23.30
2019-05-18T11:07:46.807Z,23.30
2019-05-18T11:10:16.916Z,23.30
2019-05-18T11:12:45.907Z,23.20
2019-05-18T11:15:15.005Z,23.30
2019-05-18T11:17:43.896Z,23.30
2019-05-18T11:20:12.785Z,23.30
2019-05-18T11:22:41.675Z,23.30
2019-05-18T11:25:10.569Z,23.30
2019-05-18T11:27:39.677Z,23.30
2019-05-18T11:30:09.415Z,23.40
2019-05-18T11:32:39.084Z,23.40
2019-05-18T11:35:08.667Z,23.40
2019-05-18T11:37:37.992Z,23.40
2019-05-18T11:40:10.254Z,23.40
2019-05-18T11:42:39.680Z,23.40
2019-05-18T11:45:10.879Z,23.40
2019-05-18T11:47:40.111Z,23.40
2019-05-18T11:50:09.718Z,23.40
2019-05-18T11:52:40.655Z,23.50
2019-05-18T11:55:09.586Z,23.40
2019-05-18T11:57:38.540Z,23.40
2019-05-18T12:00:13.059Z,23.50
2019-05-18T12:02:42.060Z,23.50
2019-05-18T12:05:11.356Z,23.50
2019-05-18T12:07:43.138Z,23.60
2019-05-18T12:10:13.034Z,23.60
2019-05-18T12:12:42.027Z,23.60
2019-05-18T12:15:11.728Z,23.50
2019-05-18T12:17:40.620Z,23.50
2019-05-18T12:20:09.613Z,23.50
2019-05-18T12:22:38.609Z,23.50
2019-05-18T12:25:09.140Z,23.50
2019-05-18T12:27:38.158Z,23.60
2019-05-18T12:30:10.626Z,23.60
2019-05-18T12:32:39.494Z,23.60
2019-05-18T12:35:10.330Z,23.60
2019-05-18T12:37:39.733Z,23.60
2019-05-18T12:40:09.227Z,23.60
2019-05-18T12:42:38.230Z,23.60
2019-05-18T12:45:10.380Z,23.60
2019-05-18T12:47:39.288Z,23.60
2019-05-18T12:50:08.592Z,23.60
2019-05-18T12:52:37.890Z,23.60
2019-05-18T12:55:07.214Z,23.60
2019-05-18T12:57:36.491Z,23.60
2019-05-18T13:00:13.118Z,23.60
2019-05-18T13:02:42.463Z,23.60
2019-05-18T13:05:11.483Z,23.60
2019-05-18T13:07:40.463Z,23.50
2019-05-18T13:10:10.370Z,23.60
2019-05-18T13:12:39.766Z,23.60
2019-05-18T13:15:10.502Z,23.60
2019-05-18T13:17:39.809Z,23.60
2019-05-18T13:20:09.107Z,23.60
2019-05-18T13:22:38.094Z,23.60
2019-05-18T13:25:07.105Z,23.70
2019-05-18T13:27:39.358Z,23.70
2019-05-18T13:30:08.118Z,23.70
2019-05-18T13:32:38.787Z,23.70
2019-05-18T13:35:08.593Z,23.70
2019-05-18T13:37:37.685Z,23.70
2019-05-18T13:40:08.221Z,23.60
2019-05-18T13:42:37.114Z,23.60
2019-05-18T13:45:10.400Z,23.60
2019-05-18T13:47:40.314Z,23.70
2019-05-18T13:50:09.326Z,23.60
2019-05-18T13:52:38.300Z,23.60
2019-05-18T13:55:07.296Z,23.60
2019-05-18T13:57:36.289Z,23.60
2019-05-18T14:00:08.770Z,23.50
2019-05-18T14:02:37.655Z,23.50
2019-05-18T14:05:09.820Z,23.50
2019-05-18T14:07:39.640Z,23.60
2019-05-18T14:10:08.625Z,23.60
2019-05-18T14:12:37.622Z,23.50
2019-05-18T14:15:07.237Z,23.60
2019-05-18T14:17:36.227Z,23.50
2019-05-18T14:20:05.327Z,23.50
2019-05-18T14:22:34.109Z,23.50
2019-05-18T14:25:10.577Z,23.60
2019-05-18T14:27:33.428Z,23.60
2019-05-18T14:30:02.313Z,23.60
2019-05-18T14:32:32.332Z,23.60
2019-05-18T14:35:01.327Z,23.60
2019-05-18T14:37:30.316Z,23.60
2019-05-18T14:39:59.410Z,23.60
2019-05-18T14:42:28.339Z,23.60
2019-05-18T14:44:57.714Z,23.60
2019-05-18T14:47:27.624Z,23.60
2019-05-18T14:49:57.532Z,23.60
2019-05-18T14:52:26.425Z,23.60
2019-05-18T14:54:55.724Z,23.50
2019-05-18T14:57:25.831Z,23.60
2019-05-18T14:59:56.475Z,23.60
2019-05-18T15:02:25.776Z,23.60
2019-05-18T15:04:56.943Z,23.70
2019-05-18T15:07:26.019Z,23.70
2019-05-18T15:09:55.316Z,23.70
2019-05-18T15:12:24.517Z,23.70
2019-05-18T15:14:53.815Z,23.70
2019-05-18T15:17:23.107Z,23.70
2019-05-18T15:19:52.108Z,23.70
2019-05-18T15:22:21.100Z,23.80
2019-05-18T15:24:52.037Z,23.80
2019-05-18T15:27:20.929Z,23.80
2019-05-18T15:29:49.923Z,23.90
2019-05-18T15:32:18.916Z,23.90
2019-05-18T15:34:47.911Z,24.00
2019-05-18T15:37:17.004Z,24.10
2019-05-18T15:39:45.896Z,24.10
2019-05-18T15:42:14.887Z,24.10
2019-05-18T15:44:43.887Z,24.20
2019-05-18T15:47:12.875Z,24.20
2019-05-18T15:49:41.869Z,24.30
2019-05-18T15:52:11.988Z,24.30
2019-05-18T15:54:41.186Z,24.40
2019-05-18T15:57:10.075Z,24.40
2019-05-18T15:59:39.068Z,24.50
2019-05-18T16:02:08.064Z,24.50
2019-05-18T16:04:37.054Z,24.50
2019-05-18T16:07:06.051Z,24.50
2019-05-18T16:09:36.885Z,24.50
2019-05-18T16:12:05.878Z,24.50
2019-05-18T16:14:35.180Z,24.60
2019-05-18T16:17:06.018Z,24.60
2019-05-18T16:19:35.009Z,24.60
2019-05-18T16:22:04.035Z,24.60
2019-05-18T16:24:33.304Z,24.60
2019-05-18T16:27:02.299Z,24.60
2019-05-18T16:29:31.605Z,24.60
2019-05-18T16:32:00.615Z,24.60
2019-05-18T16:34:29.588Z,24.60
2019-05-18T16:37:00.746Z,24.70
2019-05-18T16:39:29.104Z,24.70
2019-05-18T16:41:58.199Z,24.70
2019-05-18T16:44:27.192Z,24.70
2019-05-18T16:46:56.697Z,24.70
2019-05-18T16:49:26.004Z,24.70
2019-05-18T16:51:55.399Z,24.70
2019-05-18T16:54:24.598Z,24.70
2019-05-18T16:56:54.205Z,24.80
2019-05-18T16:59:23.201Z,24.80
2019-05-18T17:01:52.194Z,24.80
2019-05-18T17:04:21.191Z,24.80
2019-05-18T17:06:50.279Z,24.80
2019-05-18T17:09:19.272Z,24.80
2019-05-18T17:11:49.192Z,24.80
2019-05-18T17:14:18.084Z,24.80
2019-05-18T17:16:47.386Z,24.90
2019-05-18T17:19:16.372Z,24.90
2019-05-18T17:21:45.365Z,24.90
2019-05-18T17:24:14.357Z,24.90
2019-05-18T17:26:52.347Z,24.90
2019-05-18T17:29:13.981Z,24.90
2019-05-18T17:31:42.874Z,25.00
2019-05-18T17:34:11.866Z,25.00
2019-05-18T17:36:40.859Z,25.00
2019-05-18T17:39:09.857Z,25.00
2019-05-18T17:41:38.847Z,25.00
2019-05-18T17:44:07.844Z,25.00
2019-05-18T17:46:36.831Z,25.00
2019-05-18T17:49:05.723Z,25.00
2019-05-18T17:51:34.612Z,25.00
2019-05-18T17:54:03.503Z,25.00
2019-05-18T17:56:32.496Z,25.00
2019-05-18T17:59:01.492Z,25.00
2019-05-18T18:01:30.488Z,25.00
2019-05-18T18:03:59.477Z,25.00
2019-05-18T18:06:28.475Z,25.00
2019-05-18T18:08:57.464Z,25.00
2019-05-18T18:11:26.558Z,25.00
2019-05-18T18:13:55.860Z,25.00
2019-05-18T18:16:25.071Z,25.00
2019-05-18T18:18:54.365Z,25.00
2019-05-18T18:21:23.433Z,25.00
2019-05-18T18:23:55.217Z,25.10
2019-05-18T18:26:24.715Z,25.00
2019-05-18T18:28:54.019Z,25.00
2019-05-18T18:31:22.978Z,25.00
2019-05-18T18:33:52.005Z,25.10
2019-05-18T18:36:21.409Z,25.00
2019-05-18T18:38:50.610Z,25.00
2019-05-18T18:41:20.524Z,25.00
2019-05-18T18:43:50.239Z,25.00
2019-05-18T18:46:19.117Z,25.00
2019-05-18T18:48:48.111Z,25.00
2019-05-18T18:51:17.137Z,25.00
2019-05-18T18:53:46.097Z,25.00
2019-05-18T18:56:14.987Z,25.00
2019-05-18T18:58:43.878Z,25.00
2019-05-18T19:01:12.769Z,25.00
2019-05-18T19:03:41.763Z,25.00
2019-05-18T19:06:10.756Z,25.00
2019-05-18T19:08:39.748Z,25.00
2019-05-18T19:11:08.750Z,25.00
2019-05-18T19:13:37.947Z,25.00
2019-05-18T19:16:06.830Z,25.00
2019-05-18T19:18:37.878Z,25.00
2019-05-18T19:21:06.885Z,25.00
2019-05-18T19:23:36.473Z,25.00
2019-05-18T19:26:06.081Z,25.00
2019-05-18T19:28:35.073Z,25.00
2019-05-18T19:31:04.071Z,25.00
2019-05-18T19:33:33.059Z,25.00
2019-05-18T19:36:02.075Z,25.00
2019-05-18T19:38:31.969Z,25.00
2019-05-18T19:41:00.759Z,25.00
2019-05-18T19:43:29.647Z,25.00
2019-05-18T19:45:58.639Z,25.00
2019-05-18T19:48:27.632Z,25.00
2019-05-18T19:50:56.727Z,25.00
2019-05-18T19:53:25.927Z,25.00
2019-05-18T19:55:55.227Z,25.00
2019-05-18T19:58:24.843Z,24.90
2019-05-18T20:00:54.237Z,24.90
2019-05-18T20:03:23.094Z,24.90
2019-05-18T20:05:52.122Z,24.90
2019-05-18T20:08:21.011Z,24.90
2019-05-18T20:10:49.798Z,24.90
2019-05-18T20:13:19.202Z,24.90
2019-05-18T20:15:48.092Z,24.90
2019-05-18T20:18:17.089Z,24.90
2019-05-18T20:20:46.079Z,24.90
2019-05-18T20:23:15.380Z,24.90
2019-05-18T20:25:44.376Z,24.90
2019-05-18T20:28:23.387Z,24.90
2019-05-18T20:30:43.691Z,24.90
2019-05-18T20:33:12.581Z,24.90
2019-05-18T20:35:42.806Z,24.90
2019-05-18T20:38:11.797Z,24.90
2019-05-18T20:40:40.794Z,24.90
2019-05-18T20:43:09.885Z,24.80
2019-05-18T20:45:38.778Z,24.90
2019-05-18T20:48:07.774Z,24.80
2019-05-18T20:50:36.767Z,24.80
2019-05-18T20:53:05.761Z,24.80
2019-05-18T20:55:34.758Z,24.80
2019-05-18T20:58:03.853Z,24.80
2019-05-18T21:00:32.836Z,24.80
2019-05-18T21:03:01.729Z,24.80
2019-05-18T21:05:30.719Z,24.80
2019-05-18T21:07:59.716Z,24.80
2019-05-18T21:10:28.706Z,24.80
2019-05-18T21:12:57.703Z,24.80
2019-05-18T21:15:26.694Z,24.80
2019-05-18T21:17:56.299Z,24.80
2019-05-18T21:20:25.601Z,24.80
2019-05-18T21:22:54.597Z,24.80
2019-05-18T21:25:23.676Z,24.70
2019-05-18T21:27:52.880Z,24.80
2019-05-18T21:30:22.189Z,24.70
2019-05-18T21:32:51.184Z,24.70
2019-05-18T21:35:20.174Z,24.70
2019-05-18T21:37:49.166Z,24.70
2019-05-18T21:40:18.161Z,24.70
2019-05-18T21:42:47.158Z,24.70
2019-05-18T21:45:16.148Z,24.70
2019-05-18T21:47:46.059Z,24.70
2019-05-18T21:50:15.059Z,24.70
2019-05-18T21:52:44.048Z,24.70
2019-05-18T21:55:13.042Z,24.70
2019-05-18T21:57:42.138Z,24.70
2019-05-18T22:00:11.025Z,24.60
2019-05-18T22:02:40.125Z,24.60
2019-05-18T22:05:10.241Z,24.60
2019-05-18T22:07:40.160Z,24.60
2019-05-18T22:10:24.518Z,24.60
2019-05-18T22:12:40.906Z,24.60
2019-05-18T22:15:09.800Z,24.60
2019-05-18T22:17:57.941Z,24.60
2019-05-18T22:20:26.935Z,24.60
2019-05-18T22:22:56.234Z,24.60
2019-05-18T22:25:25.635Z,24.60
2019-05-18T22:27:54.639Z,24.60
2019-05-18T22:30:23.826Z,24.60
2019-05-18T22:32:53.092Z,24.50
2019-05-18T22:35:22.229Z,24.50
2019-05-18T22:37:51.112Z,24.50
2019-05-18T22:40:20.106Z,24.50
2019-05-18T22:42:49.113Z,24.50
2019-05-18T22:45:18.399Z,24.50
2019-05-18T22:47:47.498Z,24.50
2019-05-18T22:50:16.852Z,24.50
2019-05-18T22:52:45.797Z,24.50
2019-05-18T22:55:14.682Z,24.50
2019-05-18T22:57:43.679Z,24.50
2019-05-18T23:00:12.675Z,24.50
2019-05-18T23:02:41.669Z,24.40
2019-05-18T23:05:10.659Z,24.50
2019-05-18T23:07:40.576Z,24.40
2019-05-18T23:10:09.560Z,24.40
2019-05-18T23:12:38.553Z,24.40
2019-05-18T23:15:07.546Z,24.40
2019-05-18T23:17:36.436Z,24.40
2019-05-18T23:20:06.248Z,24.40
2019-05-18T23:22:35.143Z,24.40
2019-05-18T23:25:06.594Z,24.40
2019-05-18T23:27:35.584Z,24.40
2019-05-18T23:30:06.726Z,24.40
2019-05-18T23:32:36.030Z,24.40
2019-05-18T23:35:05.942Z,24.30
2019-05-18T23:37:34.939Z,24.30
2019-05-18T23:40:04.746Z,24.30
2019-05-18T23:42:33.945Z,24.30
2019-05-18T23:45:02.837Z,24.30
2019-05-18T23:47:31.932Z,24.30
2019-05-18T23:50:00.822Z,24.30
2019-05-18T23:52:29.711Z,24.30
2019-05-18T23:54:58.909Z,24.30
2019-05-18T23:57:27.816Z,24.20
2019-05-18T23:59:56.693Z,24.20
